createdAt,value
2018-05-08T00:09:31.771Z,98042.18
2018-05-08T00:30:05.581Z,98030.55
2018-05-08T00:50:40.855Z,98019.13
2018-05-08T01:11:13.979Z,98014.47
2018-05-08T01:31:49.252Z,98006.91
2018-05-08T01:52:24.523Z,98000.88
2018-05-08T02:12:59.794Z,97990.70
2018-05-08T02:33:32.916Z,97977.89
2018-05-08T02:54:08.409Z,97971.05
2018-05-08T03:14:41.310Z,97959.86
2018-05-08T03:35:15.836Z,97969.83
2018-05-08T03:55:46.935Z,97974.75
2018-05-08T04:16:19.136Z,97963.45
2018-05-08T04:36:55.466Z,97972.52
2018-05-08T04:57:29.695Z,97958.91
2018-05-08T05:18:04.650Z,97956.73
2018-05-08T05:38:39.919Z,97944.05
2018-05-08T06:17:13.790Z,97909.41
2018-05-08T06:37:49.300Z,97912.33
2018-05-08T06:58:24.333Z,97884.14
2018-05-08T07:18:57.454Z,97867.48
2018-05-08T07:39:30.892Z,97853.34
2018-05-08T08:00:04.924Z,97848.39
2018-05-08T08:20:37.132Z,97831.48
2018-05-08T08:41:12.399Z,97828.84
2018-05-08T09:01:49.848Z,97815.80
2018-05-08T09:22:24.785Z,97801.98
2018-05-08T09:43:00.061Z,97783.41
2018-05-08T10:03:36.251Z,97757.90
2018-05-08T10:24:11.522Z,97736.14
2018-05-08T10:44:46.803Z,97709.66
2018-05-08T11:05:19.928Z,97681.00
2018-05-08T11:25:56.466Z,97661.67
2018-05-08T11:46:27.392Z,97636.66
2018-05-08T12:06:59.590Z,97605.67
2018-05-08T12:27:33.084Z,97585.44
2018-05-08T12:48:05.266Z,97580.77
2018-05-08T13:08:40.506Z,97564.46
2018-05-08T13:29:15.458Z,97541.45
2018-05-08T13:49:50.729Z,97530.70
2018-05-08T14:10:26.923Z,97513.38
2018-05-08T14:31:02.192Z,97478.91
2018-05-08T14:51:35.316Z,97457.09
2018-05-08T15:12:10.587Z,97447.09
2018-05-08T15:32:45.860Z,97457.66
2018-05-08T15:53:18.989Z,97437.51
2018-05-08T16:13:50.257Z,97433.05
2018-05-08T16:34:27.680Z,97420.36
2018-05-08T16:55:01.744Z,97414.86
2018-05-08T17:15:35.769Z,97403.96
2018-05-08T17:36:14.114Z,97406.66
2018-05-08T17:56:55.530Z,97414.25
2018-05-08T18:35:45.851Z,97428.90
2018-05-08T18:56:20.047Z,97432.30
2018-05-08T19:16:52.859Z,97452.02
2018-05-08T19:37:32.114Z,97470.34
2018-05-08T19:58:06.460Z,97477.53
2018-05-08T20:18:41.736Z,97480.96
2018-05-08T20:39:14.862Z,97488.47
2018-05-08T20:59:49.408Z,97492.71
2018-05-08T21:20:24.177Z,97508.89
2018-05-08T21:40:55.454Z,97512.00
2018-05-08T22:01:30.049Z,97509.93
2018-05-08T22:22:02.003Z,97506.67
2018-05-08T22:42:39.499Z,97500.08
2018-05-08T23:03:16.539Z,97472.77
2018-05-08T23:23:52.740Z,97458.84
2018-05-08T23:44:25.853Z,97452.16
